TFM - Tactical Decision Aid
ID: Runway Winds: CIG/VIS Threshold:

KLAR - Laramie Rgnl, WY, US

Updated at: 1352 UTC 27 Nov 2021
Latest TAF at: 1140 UTC 27 Nov 2021

TAF Board

Time1253Z 27/14Z 27/15Z 27/16Z 27/17Z 27/18Z 27/19Z 27/20Z 27/21Z 27/22Z 27/23Z 28/00Z 28/01Z 28/02Z>>
Type OBS PRVL PRVL PRVL PRVL PRVL PRVL PRVL PRVL PRVL PRVL PRVL PRVL PRVL
VIS 10 >6 >6 >6 >6 >6 >6 >6 >6 >6 >6 >6 >6 >6
CIG -- -- -- -- -- -- -- -- -- -- -- -- -- --
Cover CLR SKC SKC SCT SCT SCT SCT SCT SCT SCT SCT SCT SCT SCT
FltCat VFR VFR VFR VFR VFR VFR VFR VFR VFR VFR VFR VFR VFR VFR
WX -- -- -- -- -- -- -- -- -- -- -- -- -- --
WDir 180 VRB VRB 340 340 340 340 340 340 340 340 340 340 210
WSpd 4 6 6 9 9 9 9 9 9 9 9 9 9 8
WGst -- -- -- -- -- -- -- -- -- -- -- -- -- --
WSHgt -- -- -- -- -- -- -- -- -- -- -- -- -- --
WSDir -- -- -- -- -- -- -- -- -- -- -- -- -- --
WSSpd -- -- -- -- -- -- -- -- -- -- -- -- -- --

TDA Impact Legend

  None Marginal Slight Moderate High
Visibility (sm) >5 3≤X≤5 2≤X<3 1≤X<2 <1
Ceiling (100 ft) >30 10≤X≤30 8≤X<10 3≤X<8 <3
Wind Speed (kt) <15 15≤X<25 25≤X<30 ≥30
Wind Gust (kt) <15 15≤X<25 25≤X<35 ≥35
Weather No Wx Reported VCTS -TS,-FZRA TS,FZRA +TS,+FZRA
TAF
KLAR 271140Z 2712/2812 VRB06KT P6SM SKC
  FM271600 34009KT P6SM SCT250
  FM280200 21008KT P6SM SCT250


METAR
KLAR 271253Z AUTO 18004KT 10SM CLR M05/M15 A3019 RMK AO2 SLP214 T10501150
KLAR 271153Z AUTO 10003KT 10SM CLR M05/M15 A3018 RMK AO2 SLP207 T10501150 10044 21061 53009
KLAR 271053Z AUTO 26007KT 10SM CLR M05/M15 A3016 RMK AO2 SLP190 T10501150

Radar Display
Forecast Discussion